Time;durP1;ratioP1;P1;durP2;ratioP2;P2;SDS_P1;SDS_P2;PMS_P1;PMS_P2;Temp;Humidity;BMP_temperature;BMP_pressure;BME280_temperature;BME280_humidity;BME280_pressure;Samples;Min_cycle;Max_cycle;Signal;HPM_P1;HPM_P2
2021/12/20 00:00:01;;;;;;;16.90;12.00;;;5.70;99.90;;;;;;5057061;28;20540;-61
2021/12/20 00:02:28;;;;;;;14.37;11.70;;;5.70;99.90;;;;;;5056969;28;20883;-61
2021/12/20 00:04:55;;;;;;;19.47;11.50;;;5.70;99.90;;;;;;5057044;28;20637;-61
2021/12/20 00:07:25;;;;;;;15.57;11.17;;;5.70;99.90;;;;;;5056638;28;20466;-61
2021/12/20 00:09:52;;;;;;;18.10;11.50;;;5.70;99.90;;;;;;5056207;28;20801;-61
2021/12/20 00:12:24;;;;;;;18.97;11.90;;;5.70;99.90;;;;;;5054493;28;20466;-61
2021/12/20 00:14:51;;;;;;;16.70;10.43;;;5.70;99.90;;;;;;5057299;28;20469;-61
2021/12/20 00:17:18;;;;;;;14.80;8.90;;;5.70;99.90;;;;;;5051254;28;20466;-61
2021/12/20 00:19:48;;;;;;;19.00;9.63;;;5.60;99.90;;;;;;5050480;28;20771;-60
2021/12/20 00:22:15;;;;;;;11.60;8.13;;;5.60;99.90;;;;;;5054990;28;20519;-60
2021/12/20 00:24:42;;;;;;;15.67;8.23;;;5.70;99.90;;;;;;5056721;28;20805;-60
2021/12/20 00:27:13;;;;;;;14.77;8.00;;;5.60;99.90;;;;;;5055967;28;20459;-61
2021/12/20 00:29:41;;;;;;;13.47;7.80;;;5.70;99.90;;;;;;5057191;28;20573;-60
2021/12/20 00:32:08;;;;;;;10.90;7.20;;;5.60;99.90;;;;;;5057059;28;20466;-61
2021/12/20 00:34:38;;;;;;;11.80;7.60;;;5.60;99.90;;;;;;5057033;28;20462;-60
2021/12/20 00:40:19;;;;;;;12.17;6.80;;;5.50;99.90;;;;;;5055654;28;20520;-60
2021/12/20 00:42:36;;;;;;;13.53;6.33;;;5.60;99.90;;;;;;5050237;28;20729;-60
2021/12/20 00:45:06;;;;;;;15.23;6.20;;;5.60;99.90;;;;;;5055746;28;20490;-60
2021/12/20 00:47:33;;;;;;;16.07;6.40;;;5.60;99.90;;;;;;5055264;28;20515;-60
2021/12/20 00:50:00;;;;;;;13.97;5.90;;;5.60;99.90;;;;;;5056736;28;20523;-60
2021/12/20 00:52:30;;;;;;;10.67;5.27;;;5.60;99.90;;;;;;5056662;28;20520;-60
2021/12/20 00:54:57;;;;;;;11.40;5.27;;;5.60;99.90;;;;;;5048770;28;20467;-60
2021/12/20 00:57:24;;;;;;;14.70;6.27;;;5.60;99.90;;;;;;5056854;28;20888;-60
2021/12/20 00:59:52;;;;;;;12.03;6.73;;;5.60;99.90;;;;;;5055181;28;20462;-61
2021/12/20 01:02:20;;;;;;;21.27;7.40;;;5.50;99.90;;;;;;5053434;28;20976;-60
2021/12/20 01:04:47;;;;;;;16.00;7.30;;;5.50;99.90;;;;;;5056195;28;20547;-60
2021/12/20 01:07:14;;;;;;;13.90;6.33;;;5.60;99.90;;;;;;5056306;28;20470;-60
2021/12/20 01:09:41;;;;;;;15.10;7.27;;;5.60;99.90;;;;;;5055020;28;20497;-60
2021/12/20 01:12:15;;;;;;;12.97;6.50;;;5.50;99.90;;;;;;5056521;28;20462;-60
2021/12/20 01:14:43;;;;;;;13.63;8.43;;;5.50;99.90;;;;;;5056172;28;20470;-61
2021/12/20 01:17:10;;;;;;;15.60;7.00;;;5.50;99.90;;;;;;5050475;28;20497;-60
2021/12/20 01:19:40;;;;;;;16.50;8.00;;;5.60;99.90;;;;;;5054977;28;20462;-61
2021/12/20 01:22:07;;;;;;;15.83;8.70;;;5.50;99.90;;;;;;5044219;28;20454;-60
2021/12/20 01:24:34;;;;;;;18.23;8.23;;;5.50;99.90;;;;;;5056000;28;20505;-60
2021/12/20 01:27:01;;;;;;;18.57;7.83;;;5.50;99.90;;;;;;5051618;28;20536;-61
2021/12/20 01:29:29;;;;;;;18.70;8.37;;;5.50;99.90;;;;;;5053280;28;20539;-61
2021/12/20 01:31:58;;;;;;;14.87;7.17;;;5.50;99.90;;;;;;5056448;28;20466;-61
2021/12/20 01:34:25;;;;;;;13.87;7.57;;;5.50;99.90;;;;;;5056754;28;20458;-60
2021/12/20 01:36:55;;;;;;;15.50;7.13;;;5.50;99.90;;;;;;5057856;28;20461;-60
2021/12/20 01:39:26;;;;;;;15.23;6.43;;;5.50;99.90;;;;;;5059929;28;20462;-61
2021/12/20 01:41:53;;;;;;;13.43;6.30;;;5.40;99.90;;;;;;5058830;28;20560;-61
2021/12/20 01:44:21;;;;;;;15.30;6.93;;;5.40;99.90;;;;;;5059345;28;20835;-60
2021/12/20 01:46:48;;;;;;;15.10;7.30;;;5.40;99.90;;;;;;5059745;28;20473;-61
2021/12/20 01:49:16;;;;;;;14.60;5.23;;;5.40;99.90;;;;;;5044703;28;20458;-61
2021/12/20 01:52:01;;;;;;;21.73;6.23;;;5.40;99.90;;;;;;5040672;28;20463;-60
2021/12/20 01:54:31;;;;;;;16.07;6.30;;;5.30;99.90;;;;;;5041183;28;20490;-60
2021/12/20 01:56:58;;;;;;;15.97;7.50;;;5.40;99.90;;;;;;5058832;28;20810;-60
2021/12/20 01:59:25;;;;;;;11.73;6.67;;;5.40;99.90;;;;;;5060672;28;20466;-60
2021/12/20 02:01:53;;;;;;;11.27;5.03;;;5.40;99.90;;;;;;5060721;28;20466;-60
2021/12/20 02:04:26;;;;;;;16.13;5.80;;;5.40;99.90;;;;;;5060499;28;20529;-60
2021/12/20 02:06:59;;;;;;;16.70;6.30;;;5.40;99.90;;;;;;5060101;28;20569;-60
2021/12/20 02:09:26;;;;;;;14.93;5.60;;;5.40;99.90;;;;;;5060679;28;20536;-60
2021/12/20 02:11:54;;;;;;;13.73;5.10;;;5.30;99.90;;;;;;5059627;28;20480;-61
2021/12/20 02:14:21;;;;;;;14.00;5.60;;;5.30;99.90;;;;;;5059351;28;20462;-58
2021/12/20 02:16:54;;;;;;;15.00;6.00;;;5.30;99.90;;;;;;5060664;28;20557;-60
2021/12/20 02:19:21;;;;;;;16.13;5.40;;;5.30;99.90;;;;;;5060908;28;20513;-61
2021/12/20 02:21:49;;;;;;;15.40;5.90;;;5.30;99.90;;;;;;5060949;28;20904;-61
2021/12/20 02:24:16;;;;;;;25.00;6.60;;;5.30;99.90;;;;;;5060461;28;20490;-60
2021/12/20 02:26:44;;;;;;;13.03;5.73;;;5.30;99.90;;;;;;5060308;28;20564;-60
2021/12/20 02:29:12;;;;;;;17.63;5.50;;;5.20;99.90;;;;;;5060420;28;20497;-61
2021/12/20 02:37:26;;;;;;;15.33;4.97;;;5.20;99.90;;;;;;5059842;28;20479;-60
2021/12/20 02:39:54;;;;;;;16.13;6.23;;;5.20;99.90;;;;;;5060507;28;20490;-61
2021/12/20 02:42:27;;;;;;;11.27;4.20;;;5.20;99.90;;;;;;5059801;28;20462;-60
2021/12/20 02:45:07;;;;;;;12.90;4.83;;;5.20;99.90;;;;;;5059873;28;20498;-60
2021/12/20 02:47:39;;;;;;;15.10;4.63;;;5.20;99.90;;;;;;5059955;28;20502;-60
2021/12/20 02:50:09;;;;;;;14.10;4.67;;;5.10;99.90;;;;;;5058582;28;20465;-61
2021/12/20 02:52:37;;;;;;;13.10;4.83;;;5.10;99.90;;;;;;5059555;28;20462;-61
2021/12/20 02:55:06;;;;;;;12.67;4.40;;;5.00;99.90;;;;;;5059773;28;20501;-61
2021/12/20 02:57:34;;;;;;;19.10;5.47;;;5.00;99.90;;;;;;5059877;28;20615;-61
2021/12/20 03:00:01;;;;;;;16.10;5.13;;;5.00;99.90;;;;;;5059527;28;20823;-61
2021/12/20 03:02:29;;;;;;;13.83;4.47;;;5.00;99.90;;;;;;5059283;28;20465;-60
2021/12/20 03:04:56;;;;;;;18.60;5.50;;;5.00;99.90;;;;;;5059248;28;20490;-61
2021/12/20 03:07:26;;;;;;;16.23;5.10;;;5.00;99.90;;;;;;5059097;28;20556;-60
2021/12/20 03:10:01;;;;;;;17.83;5.27;;;5.00;99.90;;;;;;5058389;28;20494;-60
2021/12/20 03:12:32;;;;;;;15.83;5.00;;;5.00;99.90;;;;;;5058903;28;20466;-60
2021/12/20 03:15:05;;;;;;;15.20;4.80;;;5.00;99.90;;;;;;5057943;28;20519;-60
2021/12/20 03:17:32;;;;;;;15.37;5.03;;;5.00;99.90;;;;;;5058095;28;20501;-60
2021/12/20 03:19:59;;;;;;;13.90;5.13;;;5.00;99.90;;;;;;5058538;28;20463;-60
2021/12/20 03:22:26;;;;;;;19.37;5.57;;;5.00;99.90;;;;;;5058519;28;20488;-60
2021/12/20 03:24:55;;;;;;;18.13;4.60;;;5.00;7.40;;;;;;5058479;28;20490;-60
2021/12/20 03:27:22;;;;;;;10.43;4.03;;;4.90;1.00;;;;;;5058139;28;20833;-60
2021/12/20 03:29:49;;;;;;;19.93;7.47;;;4.90;1.00;;;;;;5058244;28;21003;-60
2021/12/20 03:32:16;;;;;;;17.33;4.43;;;5.00;1.00;;;;;;5058343;28;20535;-60
2021/12/20 03:34:43;;;;;;;15.50;4.33;;;4.90;1.00;;;;;;5057654;28;20462;-58
2021/12/20 03:37:10;;;;;;;16.63;5.60;;;4.90;1.00;;;;;;5058431;28;20470;-60
2021/12/20 03:39:37;;;;;;;18.93;5.47;;;4.90;1.00;;;;;;5057844;28;20523;-59
2021/12/20 03:42:09;;;;;;;18.70;5.70;;;4.90;1.00;;;;;;5058012;28;20462;-59
2021/12/20 03:44:43;;;;;;;19.37;5.00;;;4.90;20.80;;;;;;5057751;28;20783;-60
2021/12/20 03:47:10;;;;;;;18.57;6.23;;;4.90;99.90;;;;;;5058257;28;20809;-59
2021/12/20 03:49:37;;;;;;;12.80;4.73;;;4.80;99.90;;;;;;5039967;28;20467;-60
2021/12/20 03:52:05;;;;;;;12.50;4.90;;;4.80;99.90;;;;;;5038450;28;20471;-60
2021/12/20 03:54:32;;;;;;;11.43;4.00;;;4.80;99.90;;;;;;5037988;28;20525;-61
2021/12/20 03:57:00;;;;;;;16.30;4.43;;;4.80;1.00;;;;;;5037734;28;20467;-61
2021/12/20 03:59:29;;;;;;;16.47;6.70;;;4.80;1.00;;;;;;5037501;28;20463;-61
2021/12/20 04:01:57;;;;;;;19.80;5.13;;;4.80;99.90;;;;;;5037453;28;20494;-61
2021/12/20 04:04:25;;;;;;;11.57;4.67;;;4.80;1.00;;;;;;5037342;28;20796;-60
2021/12/20 04:06:52;;;;;;;14.70;4.30;;;4.80;1.00;;;;;;5037985;28;20470;-60
2021/12/20 04:09:19;;;;;;;16.87;5.80;;;4.80;1.00;;;;;;5037039;28;20504;-60
2021/12/20 04:11:46;;;;;;;20.43;5.03;;;4.80;1.00;;;;;;5037577;28;20474;-58
2021/12/20 04:14:13;;;;;;;18.57;5.00;;;4.80;1.00;;;;;;5037663;28;20470;-60
2021/12/20 04:16:42;;;;;;;21.87;4.90;;;4.70;1.00;;;;;;5037807;28;20471;-60
2021/12/20 04:19:09;;;;;;;18.53;5.70;;;4.70;1.00;;;;;;5037770;28;20647;-59
2021/12/20 04:21:36;;;;;;;22.40;5.70;;;4.70;3.60;;;;;;5037520;28;20532;-60
2021/12/20 04:24:03;;;;;;;21.10;5.13;;;4.70;60.20;;;;;;5037410;28;20458;-60
2021/12/20 04:26:30;;;;;;;14.73;5.47;;;4.70;99.90;;;;;;5037476;28;20470;-60
2021/12/20 04:28:57;;;;;;;16.90;4.97;;;4.70;99.90;;;;;;5037190;28;20463;-59
2021/12/20 04:31:24;;;;;;;15.80;5.30;;;4.60;99.90;;;;;;5037284;28;20470;-57
2021/12/20 04:33:55;;;;;;;15.57;5.00;;;4.70;99.90;;;;;;5037466;28;20467;-60
2021/12/20 04:36:22;;;;;;;18.20;4.30;;;4.70;20.00;;;;;;5037856;28;20455;-61
2021/12/20 04:38:49;;;;;;;22.97;5.00;;;4.70;1.00;;;;;;5037426;28;20891;-61
2021/12/20 04:41:16;;;;;;;24.13;4.93;;;4.70;68.70;;;;;;5036776;28;20482;-60
2021/12/20 04:43:43;;;;;;;18.70;6.90;;;4.70;99.90;;;;;;5036890;28;20533;-60
2021/12/20 04:46:10;;;;;;;11.70;4.63;;;4.60;99.90;;;;;;5037031;28;20495;-60
2021/12/20 04:48:37;;;;;;;14.80;4.77;;;4.70;42.80;;;;;;5046435;28;20536;-60
2021/12/20 04:51:05;;;;;;;17.03;5.40;;;4.70;1.00;;;;;;5056688;28;20528;-60
2021/12/20 04:53:32;;;;;;;14.80;4.67;;;4.70;1.00;;;;;;5056971;28;20466;-61
2021/12/20 04:55:59;;;;;;;14.93;4.90;;;4.60;1.00;;;;;;5056943;28;20560;-60
2021/12/20 04:58:27;;;;;;;20.47;5.23;;;4.70;22.30;;;;;;5056991;28;20462;-59
2021/12/20 05:00:54;;;;;;;13.53;4.63;;;4.70;1.00;;;;;;5057049;28;20557;-60
2021/12/20 05:03:21;;;;;;;21.40;5.17;;;4.60;1.00;;;;;;5056463;28;20458;-60
2021/12/20 05:05:48;;;;;;;18.63;5.03;;;4.70;1.00;;;;;;5056662;28;20486;-61
2021/12/20 05:08:16;;;;;;;17.70;5.50;;;4.60;1.00;;;;;;5056844;28;20473;-60
2021/12/20 05:10:43;;;;;;;14.93;4.40;;;4.70;1.00;;;;;;5056115;28;20494;-61
2021/12/20 05:13:12;;;;;;;17.47;5.70;;;4.60;1.00;;;;;;5057660;28;20779;-61
2021/12/20 05:15:42;;;;;;;26.83;4.90;;;4.70;1.00;;;;;;5060980;28;20436;-61
2021/12/20 05:18:11;;;;;;;20.50;6.43;;;4.60;1.00;;;;;;5060817;28;20472;-60
2021/12/20 05:20:38;;;;;;;20.63;6.23;;;4.60;1.00;;;;;;5060845;28;20824;-61
2021/12/20 05:23:07;;;;;;;12.10;4.70;;;4.60;99.90;;;;;;5061226;28;20552;-61
2021/12/20 05:25:36;;;;;;;18.17;5.27;;;4.60;99.90;;;;;;5060670;28;20472;-61
2021/12/20 05:28:04;;;;;;;19.50;5.67;;;4.60;99.90;;;;;;5060849;28;20512;-61
2021/12/20 05:30:31;;;;;;;17.47;4.73;;;4.60;99.90;;;;;;5060561;28;20465;-60
2021/12/20 05:32:58;;;;;;;17.93;5.20;;;4.70;1.00;;;;;;5060743;28;20461;-61
2021/12/20 05:35:25;;;;;;;20.87;5.00;;;4.60;1.00;;;;;;5059983;28;20515;-61
2021/12/20 05:37:52;;;;;;;18.30;5.57;;;4.60;1.00;;;;;;5060542;28;20508;-61
2021/12/20 05:40:20;;;;;;;22.83;5.33;;;4.60;1.00;;;;;;5059848;28;20523;-61
2021/12/20 05:42:48;;;;;;;16.50;5.03;;;4.50;1.00;;;;;;5060318;28;20470;-61
2021/12/20 05:45:16;;;;;;;16.50;5.40;;;4.50;35.40;;;;;;5060352;28;21004;-61
2021/12/20 05:47:44;;;;;;;16.03;6.10;;;4.50;96.80;;;;;;5060720;28;20883;-61
2021/12/20 05:50:13;;;;;;;18.63;4.87;;;4.50;99.90;;;;;;5060425;28;20524;-61
2021/12/20 05:52:40;;;;;;;17.73;5.20;;;4.30;99.90;;;;;;5060627;28;20539;-61
2021/12/20 05:55:09;;;;;;;17.43;4.70;;;4.30;99.90;;;;;;5060337;28;20772;-61
2021/12/20 05:57:37;;;;;;;23.83;5.70;;;4.20;1.00;;;;;;5060143;28;20741;-61
2021/12/20 06:00:12;;;;;;;24.40;6.63;;;4.10;1.00;;;;;;5060160;28;20466;-61
2021/12/20 06:02:39;;;;;;;21.60;5.60;;;4.00;99.90;;;;;;5059758;28;20497;-61
2021/12/20 06:05:07;;;;;;;29.00;7.23;;;3.90;99.90;;;;;;5059978;28;20493;-61
2021/12/20 06:07:38;;;;;;;27.87;5.90;;;3.80;1.00;;;;;;5059582;28;20497;-60
2021/12/20 06:10:09;;;;;;;18.67;5.87;;;3.80;1.00;;;;;;5059686;28;20493;-61
2021/12/20 06:12:37;;;;;;;35.97;8.60;;;3.70;99.90;;;;;;5059935;28;20462;-61
2021/12/20 06:15:08;;;;;;;25.00;8.00;;;3.60;99.90;;;;;;5059921;28;20462;-61
2021/12/20 06:17:35;;;;;;;25.83;8.00;;;3.60;99.90;;;;;;5059229;28;20461;-61
2021/12/20 06:20:03;;;;;;;28.23;7.40;;;3.50;1.00;;;;;;5059528;28;20484;-61
2021/12/20 06:22:30;;;;;;;22.00;7.00;;;3.50;99.90;;;;;;5058754;28;20463;-58
2021/12/20 06:24:57;;;;;;;32.27;8.70;;;3.60;99.90;;;;;;5057354;28;20493;-61
2021/12/20 06:27:25;;;;;;;33.13;9.77;;;3.50;99.90;;;;;;5058966;28;20774;-60
2021/12/20 06:29:53;;;;;;;25.67;7.70;;;3.50;99.90;;;;;;5057244;28;20462;-60
2021/12/20 06:32:22;;;;;;;26.57;8.17;;;3.50;1.00;;;;;;5058185;28;20516;-61
2021/12/20 06:34:49;;;;;;;24.90;8.17;;;3.50;1.00;;;;;;5057632;28;20987;-60
2021/12/20 06:37:16;;;;;;;27.40;8.10;;;3.50;1.00;;;;;;5057406;28;20473;-61
2021/12/20 06:39:49;;;;;;;22.43;7.50;;;3.50;1.00;;;;;;5058144;28;20512;-61
2021/12/20 06:42:16;;;;;;;25.50;7.43;;;3.40;1.00;;;;;;5058530;28;20956;-61
2021/12/20 06:44:43;;;;;;;29.40;7.73;;;3.40;1.00;;;;;;5078004;28;20975;-61
2021/12/20 06:47:10;;;;;;;21.93;6.00;;;3.40;1.00;;;;;;5077750;28;20878;-61
2021/12/20 06:49:39;;;;;;;26.53;7.50;;;3.40;26.40;;;;;;5059523;28;20485;-61
2021/12/20 06:52:06;;;;;;;32.33;7.70;;;3.40;99.60;;;;;;5058872;28;20437;-61
2021/12/20 06:54:36;;;;;;;29.20;7.40;;;3.30;99.90;;;;;;5058978;28;20470;-61
2021/12/20 06:57:05;;;;;;;27.50;6.90;;;3.20;95.70;;;;;;5058675;28;20498;-61
2021/12/20 06:59:32;;;;;;;21.03;7.70;;;3.20;99.90;;;;;;5058746;28;20466;-60
2021/12/20 07:02:00;;;;;;;24.27;6.40;;;3.10;99.90;;;;;;5058641;28;20804;-60
2021/12/20 07:04:29;;;;;;;26.57;6.80;;;3.10;99.90;;;;;;5058105;28;20485;-60
2021/12/20 07:06:59;;;;;;;21.67;6.73;;;3.00;99.90;;;;;;5058151;28;20673;-60
2021/12/20 07:09:31;;;;;;;24.40;7.03;;;2.90;99.90;;;;;;5055903;28;20780;-58
2021/12/20 07:12:03;;;;;;;20.60;7.63;;;2.80;99.90;;;;;;5055193;28;20461;-59
2021/12/20 07:14:30;;;;;;;24.77;6.60;;;2.80;99.90;;;;;;5058201;28;20471;-59
2021/12/20 07:16:57;;;;;;;26.40;7.90;;;2.70;99.90;;;;;;5058306;28;20557;-59
2021/12/20 07:19:25;;;;;;;22.73;7.60;;;2.60;99.90;;;;;;5058283;28;20466;-60
2021/12/20 07:21:54;;;;;;;23.23;7.30;;;2.60;99.90;;;;;;5058375;28;20466;-60
2021/12/20 07:24:22;;;;;;;25.67;6.40;;;2.60;99.90;;;;;;5058653;28;20465;-59
2021/12/20 07:26:50;;;;;;;19.67;7.90;;;2.60;99.90;;;;;;5058842;28;20936;-60
2021/12/20 07:29:18;;;;;;;17.47;6.80;;;2.50;99.90;;;;;;5058158;28;20461;-56
2021/12/20 07:31:46;;;;;;;19.80;6.60;;;2.50;99.90;;;;;;5058241;28;20466;-58
2021/12/20 07:34:13;;;;;;;23.77;7.20;;;2.50;99.90;;;;;;5058543;28;20437;-58
2021/12/20 07:36:40;;;;;;;30.03;6.70;;;2.40;99.90;;;;;;5058080;28;20458;-60
2021/12/20 07:39:07;;;;;;;28.67;7.70;;;2.30;99.90;;;;;;5058436;28;20462;-59
2021/12/20 07:41:35;;;;;;;31.20;8.13;;;2.30;99.90;;;;;;5058309;28;20466;-60
2021/12/20 07:44:02;;;;;;;25.73;7.30;;;2.30;99.90;;;;;;5057806;28;20973;-59
2021/12/20 07:46:35;;;;;;;18.20;7.03;;;2.20;99.90;;;;;;5057942;28;20486;-58
2021/12/20 07:49:02;;;;;;;19.03;6.40;;;2.20;99.90;;;;;;5057529;28;20974;-59
2021/12/20 07:51:30;;;;;;;19.43;6.30;;;2.20;99.90;;;;;;5057925;28;20580;-59
2021/12/20 07:53:59;;;;;;;23.60;8.73;;;2.20;99.90;;;;;;5057032;28;20477;-58
2021/12/20 07:56:26;;;;;;;25.37;6.60;;;2.10;99.90;;;;;;5058247;28;20508;-52
2021/12/20 07:58:56;;;;;;;20.40;9.00;;;2.10;99.90;;;;;;5058099;28;20470;-58
2021/12/20 08:01:23;;;;;;;23.37;7.93;;;2.10;99.90;;;;;;5056612;28;20478;-59
2021/12/20 08:03:50;;;;;;;25.53;7.90;;;2.10;99.90;;;;;;5057736;28;20802;-58
2021/12/20 08:06:17;;;;;;;26.13;7.80;;;2.10;99.90;;;;;;5057885;28;20798;-59
2021/12/20 08:08:47;;;;;;;23.43;7.83;;;2.20;99.90;;;;;;5056765;28;20548;-58
2021/12/20 08:11:14;;;;;;;29.77;7.30;;;2.20;99.90;;;;;;5057782;28;20823;-56
2021/12/20 08:13:45;;;;;;;16.80;7.20;;;2.30;99.90;;;;;;5057485;28;20470;-59
2021/12/20 08:16:14;;;;;;;30.90;9.60;;;2.40;99.90;;;;;;5057328;28;20486;-56
2021/12/20 08:18:41;;;;;;;49.50;22.30;;;2.60;99.90;;;;;;5057858;28;20463;-57
2021/12/20 08:21:09;;;;;;;48.17;22.00;;;2.80;99.90;;;;;;5056734;28;20465;-59
2021/12/20 08:23:40;;;;;;;44.10;20.40;;;3.00;99.90;;;;;;5057594;28;20539;-58
2021/12/20 08:26:09;;;;;;;40.40;21.97;;;3.10;99.90;;;;;;5057583;28;20932;-59
2021/12/20 08:28:38;;;;;;;35.60;17.63;;;3.20;99.90;;;;;;5056331;28;20467;-59
2021/12/20 08:31:07;;;;;;;30.63;12.20;;;3.40;99.90;;;;;;5057003;28;20588;-60
2021/12/20 08:33:37;;;;;;;26.13;11.20;;;3.70;99.90;;;;;;5036780;28;20561;-60
2021/12/20 08:36:11;;;;;;;25.87;9.90;;;3.80;99.90;;;;;;5037347;28;20463;-60
2021/12/20 08:38:39;;;;;;;22.17;8.80;;;4.00;99.90;;;;;;5047520;28;20915;-58
2021/12/20 08:41:11;;;;;;;27.03;9.80;;;4.10;99.90;;;;;;5056973;28;20462;-61
2021/12/20 08:43:38;;;;;;;25.70;8.20;;;4.30;99.90;;;;;;5056892;28;20462;-61
2021/12/20 08:46:06;;;;;;;19.37;8.80;;;4.40;99.90;;;;;;5055664;28;20490;-61
2021/12/20 08:48:41;;;;;;;33.50;10.73;;;4.40;99.90;;;;;;5054030;28;20462;-61
2021/12/20 08:51:10;;;;;;;26.47;11.80;;;4.60;50.30;;;;;;5055946;28;20457;-60
2021/12/20 08:53:37;;;;;;;26.07;10.97;;;4.90;99.90;;;;;;5056042;28;20441;-61
2021/12/20 08:56:07;;;;;;;34.07;15.23;;;5.00;1.00;;;;;;5056232;28;20524;-60
2021/12/20 08:58:34;;;;;;;31.70;13.37;;;5.20;99.90;;;;;;5056076;28;20520;-61
2021/12/20 09:01:01;;;;;;;32.53;11.87;;;5.20;1.00;;;;;;5056946;28;20461;-61
2021/12/20 09:03:29;;;;;;;35.43;18.20;;;5.20;59.80;;;;;;5056069;28;20470;-60
2021/12/20 09:05:57;;;;;;;27.63;14.30;;;5.30;1.00;;;;;;5055998;28;20540;-59
2021/12/20 09:08:24;;;;;;;23.83;10.27;;;5.40;99.90;;;;;;5054766;28;20473;-60
2021/12/20 09:10:52;;;;;;;43.83;21.00;;;5.50;99.90;;;;;;5055328;28;20898;-61
2021/12/20 09:13:19;;;;;;;25.00;10.63;;;5.60;99.90;;;;;;5055749;28;20759;-60
2021/12/20 09:15:46;;;;;;;34.17;13.70;;;5.60;1.00;;;;;;5055924;28;20485;-61
2021/12/20 09:18:13;;;;;;;32.27;13.90;;;5.80;1.00;;;;;;5053279;28;20471;-61
2021/12/20 09:20:40;;;;;;;23.87;10.13;;;6.00;1.00;;;;;;5055919;28;20476;-61
2021/12/20 09:23:12;;;;;;;30.57;9.33;;;6.10;99.90;;;;;;5056465;28;20515;-60
2021/12/20 09:25:46;;;;;;;31.63;13.57;;;6.20;99.90;;;;;;5056407;28;20466;-60
2021/12/20 09:28:14;;;;;;;28.23;10.40;;;6.20;99.90;;;;;;5056522;28;20519;-58
2021/12/20 09:30:46;;;;;;;19.03;8.83;;;6.40;99.90;;;;;;5056980;28;20462;-59
2021/12/20 09:33:15;;;;;;;27.90;11.50;;;6.50;99.90;;;;;;5056300;28;20461;-61
2021/12/20 09:35:42;;;;;;;29.63;10.50;;;6.60;99.90;;;;;;5055883;28;20969;-59
2021/12/20 09:38:17;;;;;;;25.37;9.50;;;6.70;99.90;;;;;;5055927;28;20466;-59
2021/12/20 09:41:13;;;;;;;27.37;9.90;;;6.90;99.90;;;;;;5056044;28;20469;-61
2021/12/20 09:43:44;;;;;;;21.53;10.90;;;7.00;99.90;;;;;;5036228;28;20888;-62
2021/12/20 09:46:12;;;;;;;27.40;11.67;;;7.10;86.30;;;;;;5043781;28;20585;-62
2021/12/20 09:48:39;;;;;;;24.00;11.67;;;7.30;40.80;;;;;;5046602;28;20463;-61
2021/12/20 09:51:06;;;;;;;20.23;9.30;;;7.40;1.00;;;;;;5054637;28;20467;-62
2021/12/20 09:53:35;;;;;;;19.00;9.53;;;7.40;1.00;;;;;;5055654;28;20787;-61
2021/12/20 09:56:04;;;;;;;22.73;9.73;;;7.50;1.00;;;;;;5056502;28;20466;-62
2021/12/20 09:58:36;;;;;;;23.10;11.30;;;7.40;1.00;;;;;;5055871;28;20561;-62
2021/12/20 10:01:04;;;;;;;24.17;11.80;;;7.50;1.00;;;;;;5059792;28;20819;-62
2021/12/20 10:03:31;;;;;;;28.17;12.07;;;7.70;1.00;;;;;;5060193;28;20465;-62
2021/12/20 10:05:59;;;;;;;27.73;13.60;;;7.80;1.00;;;;;;5057882;28;20512;-62
2021/12/20 10:08:32;;;;;;;27.33;13.47;;;7.80;1.00;;;;;;5057826;28;20911;-62
2021/12/20 10:11:05;;;;;;;30.47;12.63;;;7.90;1.00;;;;;;5059257;28;20751;-62
2021/12/20 10:13:34;;;;;;;16.63;9.00;;;8.10;1.00;;;;;;5059215;28;20466;-62
2021/12/20 10:16:02;;;;;;;22.50;10.30;;;8.10;1.00;;;;;;5059647;28;20515;-62
2021/12/20 10:18:33;;;;;;;19.47;8.17;;;8.10;1.00;;;;;;5059696;28;20465;-63
2021/12/20 10:21:03;;;;;;;15.77;6.37;;;8.20;1.00;;;;;;5058923;28;20466;-62
2021/12/20 10:23:32;;;;;;;22.33;8.47;;;8.40;1.00;;;;;;5038932;28;20498;-63
2021/12/20 10:26:02;;;;;;;20.90;8.50;;;8.50;1.00;;;;;;5039373;28;20467;-62
2021/12/20 10:28:33;;;;;;;18.10;8.00;;;8.60;1.00;;;;;;5044184;28;20458;-62
2021/12/20 10:31:05;;;;;;;16.43;9.30;;;8.60;1.00;;;;;;5059392;28;20508;-62
2021/12/20 10:33:33;;;;;;;15.93;8.33;;;8.50;1.00;;;;;;5058996;28;20470;-62
2021/12/20 10:36:03;;;;;;;17.23;9.00;;;8.30;1.00;;;;;;5059017;28;20513;-62
2021/12/20 10:38:33;;;;;;;19.27;7.60;;;8.20;1.00;;;;;;5058829;28;20910;-62
2021/12/20 10:41:08;;;;;;;13.30;6.43;;;8.40;1.00;;;;;;5059245;28;20466;-62
2021/12/20 10:43:40;;;;;;;17.70;7.13;;;8.40;1.00;;;;;;5058477;28;20465;-62
2021/12/20 10:46:16;;;;;;;20.77;8.23;;;8.50;1.00;;;;;;5059008;28;20927;-62
2021/12/20 10:48:48;;;;;;;19.60;8.90;;;8.70;1.00;;;;;;5059304;28;20465;-62
2021/12/20 10:51:21;;;;;;;16.87;7.00;;;8.60;1.00;;;;;;5059452;28;20458;-62
2021/12/20 10:53:57;;;;;;;16.20;7.30;;;8.40;1.00;;;;;;5058604;28;20512;-62
2021/12/20 10:56:27;;;;;;;13.57;7.43;;;8.70;1.00;;;;;;5059073;28;20458;-62
2021/12/20 10:58:59;;;;;;;9.83;5.30;;;9.00;1.00;;;;;;5058883;28;20956;-62
2021/12/20 11:04:15;;;;;;;10.60;4.17;;;9.10;1.00;;;;;;5053305;28;20783;-62
2021/12/20 11:09:28;;;;;;;12.17;3.90;;;9.10;1.00;;;;;;5056048;28;20472;-62
2021/12/20 11:11:59;;;;;;;11.60;3.80;;;8.80;1.00;;;;;;5056707;28;20458;-61
2021/12/20 11:14:34;;;;;;;11.33;5.30;;;8.70;1.00;;;;;;5058508;28;20468;-61
2021/12/20 11:17:03;;;;;;;11.70;4.57;;;8.90;1.00;;;;;;5058823;28;20540;-61
2021/12/20 11:19:33;;;;;;;7.13;3.83;;;9.10;1.00;;;;;;5058420;28;20548;-61
2021/12/20 11:22:07;;;;;;;8.47;3.27;;;9.10;1.00;;;;;;5058114;28;20458;-61
2021/12/20 11:24:40;;;;;;;10.30;2.67;;;9.10;1.00;;;;;;5058337;28;20466;-61
2021/12/20 11:27:13;;;;;;;9.20;3.70;;;9.00;1.00;;;;;;5058851;28;20781;-61
2021/12/20 11:29:42;;;;;;;7.77;3.60;;;9.10;1.00;;;;;;5058208;28;20463;-61
2021/12/20 11:32:10;;;;;;;6.10;3.13;;;9.20;1.00;;;;;;5057826;28;20879;-60
2021/12/20 11:34:41;;;;;;;7.33;3.40;;;9.10;1.00;;;;;;5058328;28;20958;-61
2021/12/20 11:37:14;;;;;;;7.70;3.30;;;9.10;1.00;;;;;;5058646;28;20462;-61
2021/12/20 11:39:42;;;;;;;9.83;4.00;;;9.30;1.00;;;;;;5057930;28;20498;-61
2021/12/20 11:42:18;;;;;;;4.90;2.47;;;9.40;1.00;;;;;;5057444;28;20541;-60
2021/12/20 11:44:50;;;;;;;4.97;2.40;;;9.30;1.00;;;;;;5058095;28;20502;-61
2021/12/20 11:47:26;;;;;;;3.37;1.60;;;9.40;1.00;;;;;;5057962;28;20533;-61
2021/12/20 11:49:58;;;;;;;5.00;2.30;;;9.00;1.00;;;;;;5038369;28;20734;-61
2021/12/20 11:52:32;;;;;;;4.60;1.97;;;9.30;1.00;;;;;;5041311;28;20462;-61
2021/12/20 11:54:59;;;;;;;3.63;2.57;;;9.20;1.00;;;;;;5057690;28;20502;-60
2021/12/20 11:57:47;;;;;;;3.83;1.83;;;9.00;1.00;;;;;;5057600;28;20491;-60
2021/12/20 12:00:36;;;;;;;2.63;2.17;;;8.90;1.00;;;;;;5058309;28;20462;-61
2021/12/20 12:03:07;;;;;;;4.27;2.57;;;8.90;1.00;;;;;;5057527;28;20497;-60
2021/12/20 12:05:47;;;;;;;2.63;1.80;;;8.80;1.00;;;;;;5057321;28;20461;-60
2021/12/20 12:08:30;;;;;;;2.30;2.10;;;8.80;1.00;;;;;;5055968;28;20494;-60
2021/12/20 12:11:00;;;;;;;4.23;2.20;;;8.80;1.00;;;;;;5017904;28;20888;-60
2021/12/20 12:13:35;;;;;;;5.73;2.10;;;8.70;1.00;;;;;;5016793;28;20838;-60
2021/12/20 12:16:04;;;;;;;5.20;2.47;;;8.70;1.00;;;;;;5017834;28;20468;-60
2021/12/20 12:18:46;;;;;;;6.37;1.90;;;8.70;1.00;;;;;;5017674;28;20460;-59
2021/12/20 12:21:41;;;;;;;3.53;3.23;;;8.70;1.00;;;;;;5017885;28;20468;-60
2021/12/20 12:24:15;;;;;;;2.87;1.93;;;8.70;1.00;;;;;;5017062;28;20789;-59
2021/12/20 12:26:46;;;;;;;3.30;1.80;;;8.50;1.00;;;;;;5017693;28;20464;-60
2021/12/20 12:29:24;;;;;;;4.83;2.40;;;8.50;1.00;;;;;;5017412;28;20499;-60
2021/12/20 12:31:57;;;;;;;5.20;2.13;;;8.60;1.00;;;;;;5017754;28;20774;-60
2021/12/20 12:34:37;;;;;;;3.40;2.03;;;8.40;1.00;;;;;;4998257;28;20827;-60
2021/12/20 12:37:21;;;;;;;4.53;2.10;;;8.50;1.00;;;;;;5015508;28;20534;-60
2021/12/20 12:39:49;;;;;;;4.50;2.33;;;8.50;1.00;;;;;;5017542;28;20471;-60
2021/12/20 12:42:16;;;;;;;7.57;2.00;;;8.50;1.00;;;;;;5017778;28;20772;-59
2021/12/20 12:44:52;;;;;;;4.13;2.03;;;8.40;1.00;;;;;;5017575;28;20475;-59
2021/12/20 12:47:35;;;;;;;5.33;2.17;;;8.50;1.00;;;;;;5017094;28;20495;-60
2021/12/20 12:50:06;;;;;;;6.90;2.40;;;8.60;1.00;;;;;;4999220;28;20492;-59
2021/12/20 12:52:38;;;;;;;5.30;2.30;;;8.30;1.00;;;;;;5017727;28;20499;-60
2021/12/20 12:55:15;;;;;;;3.70;2.43;;;8.40;1.00;;;;;;5017382;28;20487;-60
2021/12/20 12:57:44;;;;;;;3.13;2.60;;;8.40;1.00;;;;;;5017710;28;20866;-60
2021/12/20 13:00:33;;;;;;;3.93;2.40;;;8.50;1.00;;;;;;5016744;28;20468;-59
2021/12/20 13:03:19;;;;;;;4.67;2.70;;;8.60;1.00;;;;;;4997971;28;20468;-59
2021/12/20 13:05:49;;;;;;;6.30;2.60;;;8.40;1.00;;;;;;4991233;28;20531;-60
2021/12/20 13:08:17;;;;;;;7.70;2.33;;;8.40;1.00;;;;;;4997703;28;20471;-60
2021/12/20 13:10:51;;;;;;;4.67;2.23;;;8.10;1.00;;;;;;5035800;28;20540;-60
2021/12/20 13:13:22;;;;;;;3.53;2.47;;;7.80;99.90;;;;;;5045866;28;20491;-60
2021/12/20 13:15:56;;;;;;;4.00;2.20;;;7.50;99.90;;;;;;5056791;28;20466;-60